sensor_id;sensor_type;location;lat;lon;timestamp;P1;durP1;ratioP1;P2;durP2;ratioP2
11496;SDS011;5805;51.542;7.230;2023-05-10T00:01:39;5.43;;;4.50;;
11496;SDS011;5805;51.542;7.230;2023-05-10T00:04:04;5.13;;;4.25;;
11496;SDS011;5805;51.542;7.230;2023-05-10T00:06:30;5.07;;;4.50;;
11496;SDS011;5805;51.542;7.230;2023-05-10T00:08:57;5.72;;;5.10;;
11496;SDS011;5805;51.542;7.230;2023-05-10T00:11:23;5.95;;;5.40;;
11496;SDS011;5805;51.542;7.230;2023-05-10T00:13:49;6.03;;;5.45;;
11496;SDS011;5805;51.542;7.230;2023-05-10T00:16:14;5.38;;;4.72;;
11496;SDS011;5805;51.542;7.230;2023-05-10T00:18:40;6.00;;;5.32;;
11496;SDS011;5805;51.542;7.230;2023-05-10T00:21:06;5.70;;;5.18;;
11496;SDS011;5805;51.542;7.230;2023-05-10T00:23:31;7.38;;;6.53;;
11496;SDS011;5805;51.542;7.230;2023-05-10T00:25:58;6.55;;;5.90;;
11496;SDS011;5805;51.542;7.230;2023-05-10T00:28:24;6.78;;;6.07;;
11496;SDS011;5805;51.542;7.230;2023-05-10T00:30:52;7.13;;;6.43;;
11496;SDS011;5805;51.542;7.230;2023-05-10T00:33:17;7.25;;;6.35;;
11496;SDS011;5805;51.542;7.230;2023-05-10T00:35:43;8.10;;;6.78;;
11496;SDS011;5805;51.542;7.230;2023-05-10T00:38:09;9.45;;;6.75;;
11496;SDS011;5805;51.542;7.230;2023-05-10T00:40:35;7.65;;;6.78;;
11496;SDS011;5805;51.542;7.230;2023-05-10T00:43:02;8.27;;;7.38;;
11496;SDS011;5805;51.542;7.230;2023-05-10T00:45:28;7.88;;;7.07;;
11496;SDS011;5805;51.542;7.230;2023-05-10T00:47:54;8.70;;;7.43;;
11496;SDS011;5805;51.542;7.230;2023-05-10T00:50:20;8.95;;;8.10;;
11496;SDS011;5805;51.542;7.230;2023-05-10T00:52:46;9.43;;;8.23;;
11496;SDS011;5805;51.542;7.230;2023-05-10T00:55:12;9.18;;;8.02;;
11496;SDS011;5805;51.542;7.230;2023-05-10T00:57:38;9.00;;;8.10;;
11496;SDS011;5805;51.542;7.230;2023-05-10T01:00:07;9.05;;;8.02;;
11496;SDS011;5805;51.542;7.230;2023-05-10T01:02:33;9.88;;;8.63;;
11496;SDS011;5805;51.542;7.230;2023-05-10T01:04:59;9.88;;;7.57;;
11496;SDS011;5805;51.542;7.230;2023-05-10T01:07:26;8.60;;;7.70;;
11496;SDS011;5805;51.542;7.230;2023-05-10T01:12:55;7.32;;;6.55;;
11496;SDS011;5805;51.542;7.230;2023-05-10T01:15:22;8.23;;;6.97;;
11496;SDS011;5805;51.542;7.230;2023-05-10T01:17:48;8.40;;;7.50;;
11496;SDS011;5805;51.542;7.230;2023-05-10T01:20:14;8.05;;;7.25;;
11496;SDS011;5805;51.542;7.230;2023-05-10T01:22:52;8.43;;;7.45;;
11496;SDS011;5805;51.542;7.230;2023-05-10T01:25:59;7.95;;;7.15;;
11496;SDS011;5805;51.542;7.230;2023-05-10T01:28:58;6.57;;;5.85;;
11496;SDS011;5805;51.542;7.230;2023-05-10T01:32:07;5.40;;;4.90;;
11496;SDS011;5805;51.542;7.230;2023-05-10T01:34:50;5.18;;;4.68;;
11496;SDS011;5805;51.542;7.230;2023-05-10T01:37:26;4.88;;;4.20;;
11496;SDS011;5805;51.542;7.230;2023-05-10T01:40:03;5.95;;;3.97;;
11496;SDS011;5805;51.542;7.230;2023-05-10T01:42:40;3.72;;;3.35;;
11496;SDS011;5805;51.542;7.230;2023-05-10T01:45:14;3.70;;;3.40;;
11496;SDS011;5805;51.542;7.230;2023-05-10T01:47:53;3.80;;;3.25;;
11496;SDS011;5805;51.542;7.230;2023-05-10T01:50:24;4.25;;;3.85;;
11496;SDS011;5805;51.542;7.230;2023-05-10T01:52:54;4.10;;;3.70;;
11496;SDS011;5805;51.542;7.230;2023-05-10T01:55:22;4.00;;;3.65;;
11496;SDS011;5805;51.542;7.230;2023-05-10T01:57:52;3.60;;;3.30;;
11496;SDS011;5805;51.542;7.230;2023-05-10T02:00:21;4.63;;;4.03;;
11496;SDS011;5805;51.542;7.230;2023-05-10T02:02:48;4.13;;;3.72;;
11496;SDS011;5805;51.542;7.230;2023-05-10T02:05:17;5.50;;;3.40;;
11496;SDS011;5805;51.542;7.230;2023-05-10T02:07:45;4.68;;;4.28;;
11496;SDS011;5805;51.542;7.230;2023-05-10T02:10:11;4.72;;;4.22;;
11496;SDS011;5805;51.542;7.230;2023-05-10T02:12:41;4.30;;;3.90;;
11496;SDS011;5805;51.542;7.230;2023-05-10T02:15:08;3.85;;;3.55;;
11496;SDS011;5805;51.542;7.230;2023-05-10T02:17:36;4.50;;;4.10;;
11496;SDS011;5805;51.542;7.230;2023-05-10T02:20:03;4.63;;;4.22;;
11496;SDS011;5805;51.542;7.230;2023-05-10T02:22:31;4.30;;;3.90;;
11496;SDS011;5805;51.542;7.230;2023-05-10T02:24:58;4.85;;;3.70;;
11496;SDS011;5805;51.542;7.230;2023-05-10T02:27:28;3.88;;;3.50;;
11496;SDS011;5805;51.542;7.230;2023-05-10T02:29:55;4.22;;;3.83;;
11496;SDS011;5805;51.542;7.230;2023-05-10T02:32:22;3.95;;;3.55;;
11496;SDS011;5805;51.542;7.230;2023-05-10T02:34:51;5.10;;;3.90;;
11496;SDS011;5805;51.542;7.230;2023-05-10T02:37:19;7.47;;;4.22;;
11496;SDS011;5805;51.542;7.230;2023-05-10T02:39:47;4.40;;;3.97;;
11496;SDS011;5805;51.542;7.230;2023-05-10T02:42:15;4.28;;;3.88;;
11496;SDS011;5805;51.542;7.230;2023-05-10T02:44:44;4.72;;;4.30;;
11496;SDS011;5805;51.542;7.230;2023-05-10T02:47:12;5.55;;;5.00;;
11496;SDS011;5805;51.542;7.230;2023-05-10T02:49:38;5.95;;;5.18;;
11496;SDS011;5805;51.542;7.230;2023-05-10T02:52:04;6.13;;;4.68;;
11496;SDS011;5805;51.542;7.230;2023-05-10T02:54:32;5.68;;;5.13;;
11496;SDS011;5805;51.542;7.230;2023-05-10T02:57:02;5.28;;;4.78;;
11496;SDS011;5805;51.542;7.230;2023-05-10T02:59:30;5.78;;;5.20;;
11496;SDS011;5805;51.542;7.230;2023-05-10T03:01:56;6.75;;;5.05;;
11496;SDS011;5805;51.542;7.230;2023-05-10T03:04:22;6.03;;;5.22;;
11496;SDS011;5805;51.542;7.230;2023-05-10T03:06:47;6.22;;;5.18;;
11496;SDS011;5805;51.542;7.230;2023-05-10T03:09:13;6.47;;;5.30;;
11496;SDS011;5805;51.542;7.230;2023-05-10T03:11:42;8.82;;;6.05;;
11496;SDS011;5805;51.542;7.230;2023-05-10T03:14:16;7.90;;;5.50;;
11496;SDS011;5805;51.542;7.230;2023-05-10T03:16:57;6.88;;;5.50;;
11496;SDS011;5805;51.542;7.230;2023-05-10T03:19:30;6.68;;;5.97;;
11496;SDS011;5805;51.542;7.230;2023-05-10T03:22:03;7.63;;;6.10;;
11496;SDS011;5805;51.542;7.230;2023-05-10T03:24:33;7.90;;;6.72;;
11496;SDS011;5805;51.542;7.230;2023-05-10T03:27:00;7.85;;;7.05;;
11496;SDS011;5805;51.542;7.230;2023-05-10T03:29:28;8.25;;;7.40;;
11496;SDS011;5805;51.542;7.230;2023-05-10T03:31:55;10.43;;;8.40;;
11496;SDS011;5805;51.542;7.230;2023-05-10T03:34:23;9.02;;;7.97;;
11496;SDS011;5805;51.542;7.230;2023-05-10T03:36:49;9.60;;;8.60;;
11496;SDS011;5805;51.542;7.230;2023-05-10T03:39:14;9.27;;;8.38;;
11496;SDS011;5805;51.542;7.230;2023-05-10T03:41:40;9.05;;;8.07;;
11496;SDS011;5805;51.542;7.230;2023-05-10T03:44:06;11.98;;;8.35;;
11496;SDS011;5805;51.542;7.230;2023-05-10T03:46:33;10.23;;;8.50;;
11496;SDS011;5805;51.542;7.230;2023-05-10T03:48:58;9.65;;;8.57;;
11496;SDS011;5805;51.542;7.230;2023-05-10T03:51:24;9.57;;;8.57;;
11496;SDS011;5805;51.542;7.230;2023-05-10T03:53:50;10.18;;;8.23;;
11496;SDS011;5805;51.542;7.230;2023-05-10T03:56:16;9.75;;;8.57;;
11496;SDS011;5805;51.542;7.230;2023-05-10T03:58:44;11.43;;;8.75;;
11496;SDS011;5805;51.542;7.230;2023-05-10T04:01:10;10.43;;;8.48;;
11496;SDS011;5805;51.542;7.230;2023-05-10T04:03:37;10.90;;;8.38;;
11496;SDS011;5805;51.542;7.230;2023-05-10T04:06:03;10.82;;;9.07;;
11496;SDS011;5805;51.542;7.230;2023-05-10T04:08:29;11.40;;;8.73;;
11496;SDS011;5805;51.542;7.230;2023-05-10T04:11:04;11.43;;;9.43;;
11496;SDS011;5805;51.542;7.230;2023-05-10T04:13:30;15.02;;;9.68;;
11496;SDS011;5805;51.542;7.230;2023-05-10T04:15:56;12.60;;;9.73;;
11496;SDS011;5805;51.542;7.230;2023-05-10T04:18:24;13.88;;;9.75;;
11496;SDS011;5805;51.542;7.230;2023-05-10T04:20:51;14.07;;;9.80;;
11496;SDS011;5805;51.542;7.230;2023-05-10T04:23:17;14.85;;;10.55;;
11496;SDS011;5805;51.542;7.230;2023-05-10T04:25:43;12.98;;;10.38;;
11496;SDS011;5805;51.542;7.230;2023-05-10T04:28:09;14.02;;;10.88;;
11496;SDS011;5805;51.542;7.230;2023-05-10T04:30:35;13.88;;;10.65;;
11496;SDS011;5805;51.542;7.230;2023-05-10T04:33:03;16.55;;;11.48;;
11496;SDS011;5805;51.542;7.230;2023-05-10T04:35:32;14.32;;;10.70;;
11496;SDS011;5805;51.542;7.230;2023-05-10T04:38:01;16.60;;;11.32;;
11496;SDS011;5805;51.542;7.230;2023-05-10T04:40:26;14.52;;;11.82;;
11496;SDS011;5805;51.542;7.230;2023-05-10T04:42:52;17.23;;;11.48;;
11496;SDS011;5805;51.542;7.230;2023-05-10T04:45:18;14.23;;;11.88;;
11496;SDS011;5805;51.542;7.230;2023-05-10T04:47:44;16.05;;;12.45;;
11496;SDS011;5805;51.542;7.230;2023-05-10T04:50:09;18.30;;;13.68;;
11496;SDS011;5805;51.542;7.230;2023-05-10T04:52:35;17.00;;;12.73;;
11496;SDS011;5805;51.542;7.230;2023-05-10T04:55:06;17.65;;;13.88;;
11496;SDS011;5805;51.542;7.230;2023-05-10T04:57:33;17.25;;;13.85;;
11496;SDS011;5805;51.542;7.230;2023-05-10T04:59:59;19.00;;;14.40;;
11496;SDS011;5805;51.542;7.230;2023-05-10T05:02:25;20.92;;;14.52;;
11496;SDS011;5805;51.542;7.230;2023-05-10T05:04:51;18.67;;;14.23;;
11496;SDS011;5805;51.542;7.230;2023-05-10T05:07:17;20.90;;;15.30;;
11496;SDS011;5805;51.542;7.230;2023-05-10T05:09:43;20.48;;;16.10;;
11496;SDS011;5805;51.542;7.230;2023-05-10T05:12:10;23.63;;;17.45;;
11496;SDS011;5805;51.542;7.230;2023-05-10T05:14:36;27.15;;;18.25;;
11496;SDS011;5805;51.542;7.230;2023-05-10T05:17:02;27.52;;;19.85;;
11496;SDS011;5805;51.542;7.230;2023-05-10T05:19:27;26.77;;;19.75;;
11496;SDS011;5805;51.542;7.230;2023-05-10T05:21:55;27.13;;;19.92;;
11496;SDS011;5805;51.542;7.230;2023-05-10T05:24:21;28.67;;;20.38;;
11496;SDS011;5805;51.542;7.230;2023-05-10T05:26:47;27.85;;;20.55;;
11496;SDS011;5805;51.542;7.230;2023-05-10T05:29:14;28.60;;;20.52;;
11496;SDS011;5805;51.542;7.230;2023-05-10T05:31:40;25.98;;;19.45;;
11496;SDS011;5805;51.542;7.230;2023-05-10T05:34:06;29.73;;;20.23;;
11496;SDS011;5805;51.542;7.230;2023-05-10T05:36:38;30.95;;;20.95;;
11496;SDS011;5805;51.542;7.230;2023-05-10T05:39:04;27.02;;;20.98;;
11496;SDS011;5805;51.542;7.230;2023-05-10T05:41:30;27.80;;;20.48;;
11496;SDS011;5805;51.542;7.230;2023-05-10T05:43:56;28.25;;;21.05;;
11496;SDS011;5805;51.542;7.230;2023-05-10T05:46:23;29.67;;;21.70;;
11496;SDS011;5805;51.542;7.230;2023-05-10T05:48:49;30.63;;;21.85;;
11496;SDS011;5805;51.542;7.230;2023-05-10T05:51:15;30.30;;;21.48;;
11496;SDS011;5805;51.542;7.230;2023-05-10T05:53:40;31.30;;;22.48;;
11496;SDS011;5805;51.542;7.230;2023-05-10T05:56:06;28.77;;;21.92;;
11496;SDS011;5805;51.542;7.230;2023-05-10T05:58:32;28.42;;;21.48;;
11496;SDS011;5805;51.542;7.230;2023-05-10T06:00:57;29.90;;;21.85;;
11496;SDS011;5805;51.542;7.230;2023-05-10T06:03:25;27.13;;;21.05;;
11496;SDS011;5805;51.542;7.230;2023-05-10T06:05:51;29.98;;;22.35;;
11496;SDS011;5805;51.542;7.230;2023-05-10T06:08:20;29.58;;;22.50;;
11496;SDS011;5805;51.542;7.230;2023-05-10T06:10:46;29.40;;;22.50;;
11496;SDS011;5805;51.542;7.230;2023-05-10T06:13:12;32.22;;;23.33;;
11496;SDS011;5805;51.542;7.230;2023-05-10T06:15:39;32.17;;;22.95;;
11496;SDS011;5805;51.542;7.230;2023-05-10T06:18:05;30.33;;;23.25;;
11496;SDS011;5805;51.542;7.230;2023-05-10T06:20:33;30.48;;;23.02;;
11496;SDS011;5805;51.542;7.230;2023-05-10T06:23:02;33.50;;;24.45;;
11496;SDS011;5805;51.542;7.230;2023-05-10T06:25:31;32.28;;;24.75;;
11496;SDS011;5805;51.542;7.230;2023-05-10T06:27:58;30.70;;;25.58;;
11496;SDS011;5805;51.542;7.230;2023-05-10T06:30:27;31.08;;;23.92;;
11496;SDS011;5805;51.542;7.230;2023-05-10T06:32:52;33.63;;;24.60;;
11496;SDS011;5805;51.542;7.230;2023-05-10T06:35:18;31.60;;;25.25;;
11496;SDS011;5805;51.542;7.230;2023-05-10T06:37:45;31.23;;;24.75;;
11496;SDS011;5805;51.542;7.230;2023-05-10T06:40:11;30.52;;;23.75;;
11496;SDS011;5805;51.542;7.230;2023-05-10T06:42:37;27.75;;;23.10;;
11496;SDS011;5805;51.542;7.230;2023-05-10T06:45:03;33.53;;;22.65;;
11496;SDS011;5805;51.542;7.230;2023-05-10T06:47:29;29.58;;;22.25;;
11496;SDS011;5805;51.542;7.230;2023-05-10T06:49:55;25.65;;;22.90;;
11496;SDS011;5805;51.542;7.230;2023-05-10T06:52:24;28.25;;;23.05;;
11496;SDS011;5805;51.542;7.230;2023-05-10T06:54:51;28.20;;;21.90;;
11496;SDS011;5805;51.542;7.230;2023-05-10T06:57:17;31.23;;;21.38;;
11496;SDS011;5805;51.542;7.230;2023-05-10T06:59:43;27.15;;;22.02;;
11496;SDS011;5805;51.542;7.230;2023-05-10T07:02:08;29.02;;;22.48;;
11496;SDS011;5805;51.542;7.230;2023-05-10T07:04:34;27.65;;;22.70;;
11496;SDS011;5805;51.542;7.230;2023-05-10T07:07:00;28.77;;;23.02;;
11496;SDS011;5805;51.542;7.230;2023-05-10T07:09:26;25.10;;;21.60;;
11496;SDS011;5805;51.542;7.230;2023-05-10T07:11:53;24.63;;;21.58;;
11496;SDS011;5805;51.542;7.230;2023-05-10T07:14:19;26.90;;;21.63;;
11496;SDS011;5805;51.542;7.230;2023-05-10T07:16:44;28.48;;;21.83;;
11496;SDS011;5805;51.542;7.230;2023-05-10T07:19:10;27.40;;;20.17;;
11496;SDS011;5805;51.542;7.230;2023-05-10T07:21:36;25.75;;;21.27;;
11496;SDS011;5805;51.542;7.230;2023-05-10T07:24:01;26.77;;;20.30;;
11496;SDS011;5805;51.542;7.230;2023-05-10T07:26:27;29.38;;;21.73;;
11496;SDS011;5805;51.542;7.230;2023-05-10T07:28:54;27.58;;;20.08;;
11496;SDS011;5805;51.542;7.230;2023-05-10T07:31:20;25.90;;;20.25;;
11496;SDS011;5805;51.542;7.230;2023-05-10T07:33:45;25.75;;;20.85;;
11496;SDS011;5805;51.542;7.230;2023-05-10T07:36:11;31.25;;;21.30;;
11496;SDS011;5805;51.542;7.230;2023-05-10T07:38:37;30.15;;;21.20;;
11496;SDS011;5805;51.542;7.230;2023-05-10T07:41:02;26.73;;;21.45;;
11496;SDS011;5805;51.542;7.230;2023-05-10T07:43:28;27.95;;;20.83;;
11496;SDS011;5805;51.542;7.230;2023-05-10T07:45:55;27.33;;;20.75;;
11496;SDS011;5805;51.542;7.230;2023-05-10T07:48:21;30.50;;;21.63;;
11496;SDS011;5805;51.542;7.230;2023-05-10T07:50:47;26.08;;;21.45;;
11496;SDS011;5805;51.542;7.230;2023-05-10T07:53:12;28.30;;;22.50;;
11496;SDS011;5805;51.542;7.230;2023-05-10T07:55:38;29.35;;;22.63;;
11496;SDS011;5805;51.542;7.230;2023-05-10T07:58:04;28.70;;;22.58;;
11496;SDS011;5805;51.542;7.230;2023-05-10T08:00:30;32.38;;;23.00;;
11496;SDS011;5805;51.542;7.230;2023-05-10T08:02:57;29.85;;;21.67;;
11496;SDS011;5805;51.542;7.230;2023-05-10T08:05:24;26.75;;;21.60;;
11496;SDS011;5805;51.542;7.230;2023-05-10T08:07:50;26.88;;;22.13;;
11496;SDS011;5805;51.542;7.230;2023-05-10T08:10:15;29.13;;;22.50;;
11496;SDS011;5805;51.542;7.230;2023-05-10T08:12:41;29.80;;;22.92;;
11496;SDS011;5805;51.542;7.230;2023-05-10T08:15:07;27.20;;;21.95;;
11496;SDS011;5805;51.542;7.230;2023-05-10T08:17:34;29.20;;;21.15;;
11496;SDS011;5805;51.542;7.230;2023-05-10T08:20:01;24.60;;;21.20;;
11496;SDS011;5805;51.542;7.230;2023-05-10T08:22:27;27.90;;;21.83;;
11496;SDS011;5805;51.542;7.230;2023-05-10T08:24:52;30.00;;;21.27;;
11496;SDS011;5805;51.542;7.230;2023-05-10T08:27:18;28.67;;;21.05;;
11496;SDS011;5805;51.542;7.230;2023-05-10T08:29:44;28.02;;;21.13;;
11496;SDS011;5805;51.542;7.230;2023-05-10T08:32:09;26.02;;;19.95;;
11496;SDS011;5805;51.542;7.230;2023-05-10T08:34:35;25.17;;;19.63;;
11496;SDS011;5805;51.542;7.230;2023-05-10T08:37:02;25.83;;;18.85;;
11496;SDS011;5805;51.542;7.230;2023-05-10T08:39:28;24.85;;;18.90;;
11496;SDS011;5805;51.542;7.230;2023-05-10T08:41:54;23.45;;;17.73;;
11496;SDS011;5805;51.542;7.230;2023-05-10T08:44:26;26.15;;;17.67;;
11496;SDS011;5805;51.542;7.230;2023-05-10T08:46:52;24.10;;;17.38;;
11496;SDS011;5805;51.542;7.230;2023-05-10T08:49:19;21.73;;;16.60;;
11496;SDS011;5805;51.542;7.230;2023-05-10T08:51:47;19.77;;;15.80;;
11496;SDS011;5805;51.542;7.230;2023-05-10T08:54:18;20.77;;;15.52;;
11496;SDS011;5805;51.542;7.230;2023-05-10T08:56:44;20.48;;;15.02;;
11496;SDS011;5805;51.542;7.230;2023-05-10T08:59:09;23.08;;;15.25;;
11496;SDS011;5805;51.542;7.230;2023-05-10T09:01:35;21.17;;;14.48;;
11496;SDS011;5805;51.542;7.230;2023-05-10T09:04:02;20.08;;;15.55;;
11496;SDS011;5805;51.542;7.230;2023-05-10T09:06:28;20.10;;;14.02;;
11496;SDS011;5805;51.542;7.230;2023-05-10T09:08:54;18.20;;;14.32;;
11496;SDS011;5805;51.542;7.230;2023-05-10T09:11:22;16.35;;;13.13;;
11496;SDS011;5805;51.542;7.230;2023-05-10T09:13:48;18.35;;;14.35;;
11496;SDS011;5805;51.542;7.230;2023-05-10T09:16:17;19.73;;;14.55;;
11496;SDS011;5805;51.542;7.230;2023-05-10T09:18:42;16.83;;;13.38;;
11496;SDS011;5805;51.542;7.230;2023-05-10T09:21:08;20.33;;;14.52;;
11496;SDS011;5805;51.542;7.230;2023-05-10T09:23:35;18.50;;;12.13;;
11496;SDS011;5805;51.542;7.230;2023-05-10T09:26:01;16.88;;;12.98;;
11496;SDS011;5805;51.542;7.230;2023-05-10T09:28:29;14.70;;;11.68;;
11496;SDS011;5805;51.542;7.230;2023-05-10T09:30:57;15.13;;;12.85;;
11496;SDS011;5805;51.542;7.230;2023-05-10T09:33:22;16.02;;;12.35;;
11496;SDS011;5805;51.542;7.230;2023-05-10T09:35:48;16.70;;;12.85;;
11496;SDS011;5805;51.542;7.230;2023-05-10T09:38:17;14.80;;;12.75;;
11496;SDS011;5805;51.542;7.230;2023-05-10T09:40:43;14.48;;;11.65;;
11496;SDS011;5805;51.542;7.230;2023-05-10T09:43:16;16.55;;;12.73;;
11496;SDS011;5805;51.542;7.230;2023-05-10T09:45:44;17.63;;;13.07;;
11496;SDS011;5805;51.542;7.230;2023-05-10T09:48:13;19.10;;;13.82;;
11496;SDS011;5805;51.542;7.230;2023-05-10T09:50:39;16.38;;;13.55;;
11496;SDS011;5805;51.542;7.230;2023-05-10T09:53:04;18.70;;;14.27;;
11496;SDS011;5805;51.542;7.230;2023-05-10T09:55:38;19.40;;;14.70;;
11496;SDS011;5805;51.542;7.230;2023-05-10T09:58:05;19.95;;;14.82;;
11496;SDS011;5805;51.542;7.230;2023-05-10T10:00:34;19.95;;;14.63;;
11496;SDS011;5805;51.542;7.230;2023-05-10T10:03:03;14.07;;;11.48;;
11496;SDS011;5805;51.542;7.230;2023-05-10T10:05:29;13.25;;;10.95;;
11496;SDS011;5805;51.542;7.230;2023-05-10T10:07:55;13.98;;;10.80;;
11496;SDS011;5805;51.542;7.230;2023-05-10T10:10:22;10.90;;;9.75;;
11496;SDS011;5805;51.542;7.230;2023-05-10T10:12:48;11.85;;;10.52;;
11496;SDS011;5805;51.542;7.230;2023-05-10T10:15:14;13.38;;;10.50;;
11496;SDS011;5805;51.542;7.230;2023-05-10T10:17:40;13.68;;;11.35;;
11496;SDS011;5805;51.542;7.230;2023-05-10T10:20:10;15.35;;;12.52;;
11496;SDS011;5805;51.542;7.230;2023-05-10T10:22:36;16.60;;;14.38;;
11496;SDS011;5805;51.542;7.230;2023-05-10T10:25:02;20.83;;;17.30;;
11496;SDS011;5805;51.542;7.230;2023-05-10T10:27:33;23.95;;;21.00;;
11496;SDS011;5805;51.542;7.230;2023-05-10T10:30:07;25.58;;;21.30;;
11496;SDS011;5805;51.542;7.230;2023-05-10T10:32:46;27.92;;;22.65;;
11496;SDS011;5805;51.542;7.230;2023-05-10T10:35:30;26.98;;;22.48;;
11496;SDS011;5805;51.542;7.230;2023-05-10T10:37:56;27.80;;;20.83;;
11496;SDS011;5805;51.542;7.230;2023-05-10T10:40:23;24.65;;;20.75;;
11496;SDS011;5805;51.542;7.230;2023-05-10T10:42:49;25.35;;;20.27;;
11496;SDS011;5805;51.542;7.230;2023-05-10T10:45:15;22.70;;;18.35;;
11496;SDS011;5805;51.542;7.230;2023-05-10T10:47:41;20.27;;;16.42;;
11496;SDS011;5805;51.542;7.230;2023-05-10T10:50:06;17.73;;;15.02;;
11496;SDS011;5805;51.542;7.230;2023-05-10T10:52:34;19.52;;;14.55;;
11496;SDS011;5805;51.542;7.230;2023-05-10T10:55:01;17.00;;;13.40;;
11496;SDS011;5805;51.542;7.230;2023-05-10T10:57:31;16.00;;;11.88;;
11496;SDS011;5805;51.542;7.230;2023-05-10T11:02:50;13.77;;;9.75;;
11496;SDS011;5805;51.542;7.230;2023-05-10T11:05:23;11.27;;;10.07;;
11496;SDS011;5805;51.542;7.230;2023-05-10T11:08:09;11.73;;;9.30;;
11496;SDS011;5805;51.542;7.230;2023-05-10T11:10:36;13.68;;;9.80;;
11496;SDS011;5805;51.542;7.230;2023-05-10T11:13:02;12.20;;;10.40;;
11496;SDS011;5805;51.542;7.230;2023-05-10T11:15:31;12.23;;;10.05;;
11496;SDS011;5805;51.542;7.230;2023-05-10T11:17:57;11.82;;;9.75;;
11496;SDS011;5805;51.542;7.230;2023-05-10T11:20:23;13.50;;;11.15;;
11496;SDS011;5805;51.542;7.230;2023-05-10T11:22:53;14.50;;;10.98;;
11496;SDS011;5805;51.542;7.230;2023-05-10T11:25:22;13.43;;;11.50;;
11496;SDS011;5805;51.542;7.230;2023-05-10T11:27:51;18.25;;;13.32;;
11496;SDS011;5805;51.542;7.230;2023-05-10T11:30:17;16.35;;;14.18;;
11496;SDS011;5805;51.542;7.230;2023-05-10T11:32:43;21.48;;;17.52;;
11496;SDS011;5805;51.542;7.230;2023-05-10T11:35:10;19.42;;;17.23;;
11496;SDS011;5805;51.542;7.230;2023-05-10T11:37:36;20.77;;;17.10;;
11496;SDS011;5805;51.542;7.230;2023-05-10T11:40:05;19.95;;;17.27;;
11496;SDS011;5805;51.542;7.230;2023-05-10T11:42:33;18.83;;;15.90;;
11496;SDS011;5805;51.542;7.230;2023-05-10T11:45:00;20.50;;;16.60;;
11496;SDS011;5805;51.542;7.230;2023-05-10T11:47:26;17.33;;;14.55;;
11496;SDS011;5805;51.542;7.230;2023-05-10T11:49:51;20.25;;;14.63;;
11496;SDS011;5805;51.542;7.230;2023-05-10T11:52:18;18.77;;;13.70;;
11496;SDS011;5805;51.542;7.230;2023-05-10T11:54:50;17.75;;;12.95;;
11496;SDS011;5805;51.542;7.230;2023-05-10T11:57:17;11.60;;;10.43;;
11496;SDS011;5805;51.542;7.230;2023-05-10T11:59:45;13.45;;;10.07;;
11496;SDS011;5805;51.542;7.230;2023-05-10T12:02:11;11.43;;;9.50;;
11496;SDS011;5805;51.542;7.230;2023-05-10T12:04:37;12.95;;;9.57;;
11496;SDS011;5805;51.542;7.230;2023-05-10T12:07:03;12.40;;;9.55;;
11496;SDS011;5805;51.542;7.230;2023-05-10T12:09:29;11.80;;;10.13;;
11496;SDS011;5805;51.542;7.230;2023-05-10T12:11:55;13.57;;;9.98;;
11496;SDS011;5805;51.542;7.230;2023-05-10T12:14:21;12.10;;;10.05;;
11496;SDS011;5805;51.542;7.230;2023-05-10T12:16:49;14.20;;;9.13;;
11496;SDS011;5805;51.542;7.230;2023-05-10T12:19:18;11.35;;;9.77;;
11496;SDS011;5805;51.542;7.230;2023-05-10T12:21:44;12.55;;;11.25;;
11496;SDS011;5805;51.542;7.230;2023-05-10T12:24:10;13.40;;;10.23;;
11496;SDS011;5805;51.542;7.230;2023-05-10T12:26:35;12.10;;;10.85;;
11496;SDS011;5805;51.542;7.230;2023-05-10T12:31:55;10.77;;;9.68;;
11496;SDS011;5805;51.542;7.230;2023-05-10T12:34:23;11.52;;;10.35;;
11496;SDS011;5805;51.542;7.230;2023-05-10T12:36:50;11.52;;;9.77;;
11496;SDS011;5805;51.542;7.230;2023-05-10T12:39:16;11.00;;;9.77;;
11496;SDS011;5805;51.542;7.230;2023-05-10T12:41:42;10.10;;;9.00;;
11496;SDS011;5805;51.542;7.230;2023-05-10T12:44:08;10.57;;;9.48;;
11496;SDS011;5805;51.542;7.230;2023-05-10T12:46:33;10.95;;;9.35;;
11496;SDS011;5805;51.542;7.230;2023-05-10T12:49:00;12.63;;;9.30;;
11496;SDS011;5805;51.542;7.230;2023-05-10T12:51:26;11.18;;;9.38;;
11496;SDS011;5805;51.542;7.230;2023-05-10T12:53:52;10.15;;;9.07;;
11496;SDS011;5805;51.542;7.230;2023-05-10T12:56:17;11.32;;;9.23;;
11496;SDS011;5805;51.542;7.230;2023-05-10T12:58:43;11.35;;;9.77;;
11496;SDS011;5805;51.542;7.230;2023-05-10T13:01:09;12.80;;;9.57;;
11496;SDS011;5805;51.542;7.230;2023-05-10T13:03:34;13.32;;;10.32;;
11496;SDS011;5805;51.542;7.230;2023-05-10T13:06:02;11.68;;;9.85;;
11496;SDS011;5805;51.542;7.230;2023-05-10T13:08:27;10.85;;;9.30;;
11496;SDS011;5805;51.542;7.230;2023-05-10T13:10:53;10.95;;;8.88;;
11496;SDS011;5805;51.542;7.230;2023-05-10T13:13:19;10.93;;;8.93;;
11496;SDS011;5805;51.542;7.230;2023-05-10T13:15:44;10.52;;;8.88;;
11496;SDS011;5805;51.542;7.230;2023-05-10T13:18:10;12.00;;;8.35;;
11496;SDS011;5805;51.542;7.230;2023-05-10T13:20:36;10.20;;;7.63;;
11496;SDS011;5805;51.542;7.230;2023-05-10T13:23:03;7.40;;;6.60;;
11496;SDS011;5805;51.542;7.230;2023-05-10T13:25:29;8.45;;;6.90;;
11496;SDS011;5805;51.542;7.230;2023-05-10T13:27:55;9.57;;;6.53;;
11496;SDS011;5805;51.542;7.230;2023-05-10T13:30:20;6.32;;;5.70;;
11496;SDS011;5805;51.542;7.230;2023-05-10T13:32:46;6.57;;;5.45;;
11496;SDS011;5805;51.542;7.230;2023-05-10T13:35:12;8.55;;;5.90;;
11496;SDS011;5805;51.542;7.230;2023-05-10T13:37:37;6.38;;;5.38;;
11496;SDS011;5805;51.542;7.230;2023-05-10T13:40:06;6.03;;;5.47;;
11496;SDS011;5805;51.542;7.230;2023-05-10T13:42:32;5.70;;;5.10;;
11496;SDS011;5805;51.542;7.230;2023-05-10T13:44:58;6.85;;;4.10;;
11496;SDS011;5805;51.542;7.230;2023-05-10T13:47:23;7.38;;;5.10;;
11496;SDS011;5805;51.542;7.230;2023-05-10T13:49:49;5.63;;;4.43;;
11496;SDS011;5805;51.542;7.230;2023-05-10T13:52:15;4.43;;;4.03;;
11496;SDS011;5805;51.542;7.230;2023-05-10T13:54:41;6.40;;;3.60;;
11496;SDS011;5805;51.542;7.230;2023-05-10T13:57:08;5.07;;;3.50;;
11496;SDS011;5805;51.542;7.230;2023-05-10T13:59:33;7.05;;;3.53;;
11496;SDS011;5805;51.542;7.230;2023-05-10T14:01:59;4.72;;;4.03;;
11496;SDS011;5805;51.542;7.230;2023-05-10T14:04:25;6.80;;;3.88;;
11496;SDS011;5805;51.542;7.230;2023-05-10T14:06:50;6.53;;;3.80;;
11496;SDS011;5805;51.542;7.230;2023-05-10T14:09:16;4.15;;;3.47;;
11496;SDS011;5805;51.542;7.230;2023-05-10T14:11:42;4.20;;;3.38;;
11496;SDS011;5805;51.542;7.230;2023-05-10T14:14:09;3.17;;;2.65;;
11496;SDS011;5805;51.542;7.230;2023-05-10T14:16:35;3.75;;;3.05;;
11496;SDS011;5805;51.542;7.230;2023-05-10T14:19:00;4.80;;;3.50;;
11496;SDS011;5805;51.542;7.230;2023-05-10T14:21:26;4.07;;;2.72;;
11496;SDS011;5805;51.542;7.230;2023-05-10T14:23:52;3.40;;;2.58;;
11496;SDS011;5805;51.542;7.230;2023-05-10T14:26:17;6.13;;;3.70;;
11496;SDS011;5805;51.542;7.230;2023-05-10T14:28:43;5.72;;;3.28;;
11496;SDS011;5805;51.542;7.230;2023-05-10T14:31:10;4.50;;;3.40;;
11496;SDS011;5805;51.542;7.230;2023-05-10T14:33:36;4.15;;;2.95;;
11496;SDS011;5805;51.542;7.230;2023-05-10T14:36:01;5.88;;;3.08;;
11496;SDS011;5805;51.542;7.230;2023-05-10T14:38:27;5.03;;;3.33;;
11496;SDS011;5805;51.542;7.230;2023-05-10T14:40:53;3.80;;;2.95;;
11496;SDS011;5805;51.542;7.230;2023-05-10T14:43:19;7.90;;;3.30;;
11496;SDS011;5805;51.542;7.230;2023-05-10T14:45:44;4.82;;;3.45;;
11496;SDS011;5805;51.542;7.230;2023-05-10T14:48:11;4.38;;;3.38;;
11496;SDS011;5805;51.542;7.230;2023-05-10T14:50:37;6.78;;;3.30;;
11496;SDS011;5805;51.542;7.230;2023-05-10T14:53:03;4.95;;;3.70;;
11496;SDS011;5805;51.542;7.230;2023-05-10T14:55:28;7.28;;;3.60;;